KRSW/RSW METAR and TAF weather

Enter ICAO airport designator
Station Type Date Time Source
KRSW METAR 2023/02/05 22:53 UTC NOAA

KRSW 052253Z 24005KT 10SM CLR 24/18 A3005 RMK AO2 SLP172 T02440178


Station Type Date Time Source
KRSW Decoded METAR 2023/02/05 22:53 UTC NOAA

FORT MYERS SW FL INTERNATIONAL AIRPORT , FL, United States (KRSW) 26-32N 081-46W 9M
Feb 05, 2023 - 05:53 PM EST / 2023.02.05 2253 UTC
Wind: from the WSW (240 degrees) at 6 MPH (5 KT):0
Visibility: 10 mile(s):0
Sky conditions: clear
Temperature: 75.9 F (24.4 C)
Dew Point: 64.0 F (17.8 C)
Relative Humidity: 66%
Pressure (altimeter): 30.05 in. Hg (1017 hPa)
ob: KRSW 052253Z 24005KT 10SM CLR 24/18 A3005 RMK AO2 SLP172 T02440178
cycle: 23

Station Type Date Time Source
KRSW TAF 2023/02/05 18:24 UTC NOAA

TAF KRSW 051722Z 0518/0618 09008G16KT P6SM FEW020 SCT250
FM052000 27008KT P6SM BKN250
FM060200 36004KT P6SM SCT250
FM061500 05008KT P6SM FEW250

Example: see airport list